createdAt,value
2023-04-01T00:00:37.108Z,93677.59
2023-04-01T00:03:05.239Z,93679.41
2023-04-01T00:05:33.420Z,93672.81
2023-04-01T00:08:01.878Z,93684.44
2023-04-01T00:10:29.854Z,93679.03
2023-04-01T00:12:57.769Z,93679.22
2023-04-01T00:15:25.713Z,93682.81
2023-04-01T00:17:55.402Z,93681.63
2023-04-01T00:20:23.665Z,93690.44
2023-04-01T00:22:53.020Z,93687.63
2023-04-01T00:25:21.113Z,93686.22
2023-04-01T00:27:49.113Z,93694.81
2023-04-01T00:30:17.417Z,93657.53
2023-04-01T00:32:45.681Z,93682.56
2023-04-01T00:35:15.030Z,93674.75
2023-04-01T00:37:42.922Z,93674.19
2023-04-01T00:40:25.726Z,93679.16
2023-04-01T00:42:53.701Z,93663.56
2023-04-01T00:45:32.438Z,93666.09
2023-04-01T00:48:04.048Z,93663.50
2023-04-01T00:50:35.360Z,93624.69
2023-04-01T00:53:04.282Z,93635.50
2023-04-01T00:55:36.288Z,93642.66
2023-04-01T00:58:07.849Z,93650.25
2023-04-01T01:00:38.077Z,93636.56
2023-04-01T01:03:06.209Z,93627.56
2023-04-01T01:05:49.906Z,93624.97
2023-04-01T01:08:25.303Z,93612.03
2023-04-01T01:10:53.260Z,93614.50
2023-04-01T01:13:28.181Z,93617.81
2023-04-01T01:16:00.916Z,93611.56
2023-04-01T01:18:37.154Z,93608.47
2023-04-01T01:21:49.590Z,93606.63
2023-04-01T01:24:32.514Z,93599.59
2023-04-01T01:27:06.555Z,93587.09
2023-04-01T01:30:16.552Z,93595.56
2023-04-01T01:32:59.288Z,93592.56
2023-04-01T01:35:33.053Z,93592.91
2023-04-01T01:38:05.774Z,93586.16
2023-04-01T01:40:36.718Z,93583.78
2023-04-01T01:43:14.869Z,93556.19
2023-04-01T01:45:48.108Z,93578.03
2023-04-01T01:48:18.985Z,93576.00
2023-04-01T01:50:50.601Z,93584.63
2023-04-01T01:53:18.707Z,93588.34
2023-04-01T01:55:48.338Z,93566.84
2023-04-01T01:58:19.752Z,93577.84
2023-04-01T02:00:52.374Z,93578.44
2023-04-01T02:03:23.681Z,93541.66
2023-04-01T02:05:55.978Z,93558.94
2023-04-01T02:08:28.692Z,93560.75
2023-04-01T02:11:00.433Z,93529.78
2023-04-01T02:13:34.390Z,93541.97
2023-04-01T02:16:08.522Z,93529.78
2023-04-01T02:18:38.421Z,93547.16
2023-04-01T02:21:09.316Z,93550.16
2023-04-01T02:23:38.802Z,93549.56
2023-04-01T02:26:09.097Z,93536.59
2023-04-01T02:28:41.270Z,93554.78
2023-04-01T02:31:11.287Z,93548.56
2023-04-01T02:33:41.111Z,93557.34
2023-04-01T02:36:15.146Z,93557.56
2023-04-01T02:38:44.968Z,93559.97
2023-04-01T02:41:13.120Z,93539.16
2023-04-01T02:43:41.062Z,93566.19
2023-04-01T02:46:09.153Z,93541.19
2023-04-01T02:48:37.233Z,93568.78
2023-04-01T02:51:05.465Z,93566.78
2023-04-01T02:53:34.789Z,93574.38
2023-04-01T02:56:02.732Z,93561.75
2023-04-01T02:58:30.913Z,93581.19
2023-04-01T03:00:58.925Z,93590.78
2023-04-01T03:03:27.098Z,93588.56
2023-04-01T03:05:56.973Z,93576.78
2023-04-01T03:08:24.938Z,93573.38
2023-04-01T03:10:54.221Z,93603.56
2023-04-01T03:13:22.267Z,93579.19
2023-04-01T03:15:50.346Z,93593.16
2023-04-01T03:18:18.247Z,93588.75
2023-04-01T03:20:46.140Z,93588.56
2023-04-01T03:23:14.499Z,93579.56
2023-04-01T03:25:42.411Z,93589.97
2023-04-01T03:28:11.746Z,93611.94
2023-04-01T03:30:39.694Z,93585.28
2023-04-01T03:33:07.719Z,93605.13
2023-04-01T03:35:37.043Z,93577.28
2023-04-01T03:38:05.167Z,93603.13
2023-04-01T03:40:34.099Z,93595.91
2023-04-01T03:43:02.112Z,93585.94
2023-04-01T03:45:31.607Z,93562.78
2023-04-01T03:47:59.734Z,93559.16
2023-04-01T03:50:28.125Z,93540.97
2023-04-01T03:52:56.694Z,93539.16
2023-04-01T03:55:25.085Z,93523.97
2023-04-01T03:57:52.989Z,93509.78
2023-04-01T04:00:21.637Z,93489.97
2023-04-01T04:02:51.428Z,93470.81
2023-04-01T04:05:19.406Z,93489.78
2023-04-01T04:07:47.285Z,93487.75
2023-04-01T04:10:15.481Z,93481.16
2023-04-01T04:12:43.401Z,93463.19
2023-04-01T04:15:12.107Z,93467.97
2023-04-01T04:17:40.652Z,93441.81
2023-04-01T04:20:11.245Z,93476.56
2023-04-01T04:22:39.245Z,93462.00
2023-04-01T04:25:07.984Z,93468.78
2023-04-01T04:27:36.199Z,93455.41
2023-04-01T04:30:04.957Z,93445.78
2023-04-01T04:32:32.852Z,93447.59
2023-04-01T04:35:00.784Z,93433.81
2023-04-01T04:37:30.232Z,93417.41
2023-04-01T04:39:58.163Z,93442.41
2023-04-01T04:42:26.173Z,93436.22
2023-04-01T04:44:54.110Z,93422.44
2023-04-01T04:47:22.046Z,93432.22
2023-04-01T04:49:50.036Z,93437.84
2023-04-01T04:52:18.019Z,93435.03
2023-04-01T04:54:47.250Z,93414.25
2023-04-01T04:57:15.463Z,93394.88
2023-04-01T04:59:43.441Z,93386.03
2023-04-01T05:02:11.674Z,93428.78
2023-04-01T05:04:39.689Z,93433.16
2023-04-01T05:07:07.761Z,93407.00
2023-04-01T05:09:35.818Z,93397.44
2023-04-01T05:12:05.336Z,93397.03
2023-04-01T05:14:33.326Z,93405.22
2023-04-01T05:17:01.242Z,93409.19
2023-04-01T05:19:29.131Z,93380.34
2023-04-01T05:21:57.066Z,93384.63
2023-04-01T05:24:25.047Z,93378.47
2023-04-01T05:26:53.873Z,93373.69
2023-04-01T05:29:24.569Z,93367.09
2023-04-01T05:31:52.613Z,93365.47
2023-04-01T05:34:20.578Z,93361.09
2023-04-01T05:36:48.617Z,93394.66
2023-04-01T05:39:16.757Z,93388.84
2023-04-01T05:41:44.665Z,93353.88
2023-04-01T05:44:13.901Z,93382.44
2023-04-01T05:46:43.658Z,93378.50
2023-04-01T05:49:12.706Z,93377.25
2023-04-01T05:51:40.638Z,93373.66
2023-04-01T05:54:08.575Z,93352.84
2023-04-01T05:56:36.449Z,93371.59
2023-04-01T05:59:04.520Z,93345.22
2023-04-01T06:01:32.687Z,93339.56
2023-04-01T06:04:02.128Z,93367.81
2023-04-01T06:06:32.003Z,93363.69
2023-04-01T06:09:04.249Z,93356.81
2023-04-01T06:11:39.309Z,93360.81
2023-04-01T06:14:19.988Z,93363.56
2023-04-01T06:17:03.333Z,93355.72
2023-04-01T06:19:42.311Z,93360.53
2023-04-01T06:22:39.832Z,93345.66
2023-04-01T06:25:37.878Z,93355.97
2023-04-01T06:28:34.013Z,93359.22
2023-04-01T06:31:12.849Z,93364.38
2023-04-01T06:33:56.040Z,93354.38
2023-04-01T06:36:41.317Z,93351.06
2023-04-01T06:39:37.827Z,93341.81
2023-04-01T06:42:27.789Z,93333.84
2023-04-01T06:45:08.981Z,93334.28
2023-04-01T06:47:49.180Z,93322.03
2023-04-01T06:50:25.129Z,93331.59
2023-04-01T06:53:02.866Z,93309.81
2023-04-01T06:55:39.035Z,93315.47
2023-04-01T06:58:12.291Z,93297.94
2023-04-01T07:00:45.544Z,93277.22
2023-04-01T07:03:22.494Z,93302.91
2023-04-01T07:05:51.585Z,93287.72
2023-04-01T07:08:25.519Z,93316.47
2023-04-01T07:10:57.919Z,93295.69
2023-04-01T07:13:29.470Z,93293.94
2023-04-01T07:16:04.052Z,93301.78
2023-04-01T07:18:39.414Z,93296.16
2023-04-01T07:21:12.697Z,93257.91
2023-04-01T07:23:47.079Z,93292.66
2023-04-01T07:26:19.944Z,93301.50
2023-04-01T07:28:47.951Z,93291.13
2023-04-01T07:31:24.499Z,93281.88
2023-04-01T07:34:01.448Z,93311.56
2023-04-01T07:36:38.187Z,93314.19
2023-04-01T07:39:20.653Z,93309.09
2023-04-01T07:41:58.330Z,93310.25
2023-04-01T07:44:37.210Z,93305.31
2023-04-01T07:47:19.455Z,93283.59
2023-04-01T07:49:59.518Z,93289.16
2023-04-01T07:52:36.610Z,93287.94
2023-04-01T07:55:12.434Z,93273.00
2023-04-01T07:57:50.036Z,93295.72
2023-04-01T08:00:22.476Z,93289.34
2023-04-01T08:03:15.080Z,93277.88
2023-04-01T08:05:52.598Z,93289.34
2023-04-01T08:08:27.220Z,93298.78
2023-04-01T08:11:06.960Z,93262.78
2023-04-01T08:13:42.194Z,93232.22
2023-04-01T08:16:17.993Z,93266.31
2023-04-01T08:18:54.562Z,93260.53
2023-04-01T08:21:25.800Z,93242.81
2023-04-01T08:23:56.497Z,93224.63
2023-04-01T08:26:37.173Z,93249.47
2023-04-01T08:29:12.197Z,93240.72
2023-04-01T08:31:45.686Z,93215.81
2023-04-01T08:34:19.503Z,93245.50
2023-04-01T08:36:54.634Z,93206.06
2023-04-01T08:39:31.916Z,93195.69
2023-04-01T08:42:34.142Z,93193.28
2023-04-01T08:45:28.243Z,93181.69
2023-04-01T08:48:18.459Z,93191.38
2023-04-01T08:51:20.817Z,93184.56
2023-04-01T08:54:16.163Z,93175.41
2023-04-01T08:56:54.816Z,93169.38
2023-04-01T08:59:49.869Z,93175.47
2023-04-01T09:02:52.302Z,93180.16
2023-04-01T09:05:55.782Z,93184.78
2023-04-01T09:08:35.317Z,93178.88
2023-04-01T09:11:10.788Z,93182.28
2023-04-01T09:13:52.508Z,93179.88
2023-04-01T09:16:30.149Z,93171.41
2023-04-01T09:19:35.756Z,93168.97
2023-04-01T09:22:27.368Z,93169.03
2023-04-01T09:25:17.679Z,93166.78
2023-04-01T09:27:54.075Z,93156.94
2023-04-01T09:30:44.922Z,93143.34
2023-04-01T09:33:48.730Z,93136.03
2023-04-01T09:36:40.374Z,93148.06
2023-04-01T09:39:26.453Z,93135.94
2023-04-01T09:42:09.096Z,93115.41
2023-04-01T09:44:39.593Z,93113.81
2023-04-01T09:47:23.076Z,93127.75
2023-04-01T09:50:13.031Z,93125.22
2023-04-01T09:52:49.557Z,93109.59
2023-04-01T09:55:45.103Z,93115.97
2023-04-01T09:58:48.550Z,93097.13
2023-04-01T10:01:43.179Z,93089.25
2023-04-01T10:04:54.460Z,93082.47
2023-04-01T10:07:53.636Z,93075.09
2023-04-01T10:10:57.351Z,93093.31
2023-04-01T10:13:58.134Z,93079.38
2023-04-01T10:17:02.607Z,93073.13
2023-04-01T10:20:03.421Z,93079.13
2023-04-01T10:23:01.439Z,93075.44
2023-04-01T10:25:50.936Z,93065.94
2023-04-01T10:29:03.933Z,93058.06
2023-04-01T10:32:09.896Z,93066.47
2023-04-01T10:35:25.759Z,93074.03
2023-04-01T10:38:35.040Z,93067.72
2023-04-01T10:41:35.089Z,93041.09
2023-04-01T10:45:02.915Z,93049.00
2023-04-01T10:48:10.227Z,93050.53
2023-04-01T10:51:25.537Z,93041.50
2023-04-01T10:54:22.950Z,93035.41
2023-04-01T10:56:59.647Z,93034.25
2023-04-01T11:00:21.033Z,93026.34
2023-04-01T11:03:45.901Z,93009.53
2023-04-01T11:06:57.918Z,93005.78
2023-04-01T11:09:59.110Z,93008.69
2023-04-01T11:13:02.390Z,93018.75
2023-04-01T11:16:03.337Z,93014.34
2023-04-01T11:19:05.801Z,93014.28
2023-04-01T11:21:54.641Z,93015.84
2023-04-01T11:24:56.032Z,93017.63
2023-04-01T11:27:44.863Z,93038.09
2023-04-01T11:30:23.140Z,93017.53
2023-04-01T11:32:56.945Z,93027.03
2023-04-01T11:35:45.146Z,93095.94
2023-04-01T11:38:26.729Z,93087.47
2023-04-01T11:41:02.744Z,93122.94
2023-04-01T11:43:36.801Z,93176.59
2023-04-01T11:46:12.553Z,93171.72
2023-04-01T11:48:55.397Z,93194.88
2023-04-01T11:51:56.735Z,93247.47
2023-04-01T11:54:43.828Z,93285.38
2023-04-01T11:57:32.586Z,93278.88
2023-04-01T12:00:31.071Z,93290.34
2023-04-01T12:03:20.311Z,93283.19
2023-04-01T12:05:54.007Z,93253.25
2023-04-01T12:08:33.867Z,93268.22
2023-04-01T12:11:07.449Z,93249.88
2023-04-01T12:13:45.451Z,93259.66
2023-04-01T12:16:33.053Z,93253.47
2023-04-01T12:19:09.483Z,93237.84
2023-04-01T12:21:39.667Z,93260.78
2023-04-01T12:24:48.460Z,93250.13
2023-04-01T12:27:29.728Z,93238.72
2023-04-01T12:30:29.280Z,93247.81
2023-04-01T12:33:15.793Z,93253.66
2023-04-01T12:35:57.604Z,93197.00
2023-04-01T12:38:38.158Z,93252.94
2023-04-01T12:41:12.230Z,93216.84
2023-04-01T12:44:25.990Z,93263.38
2023-04-01T12:47:11.997Z,93254.81
2023-04-01T12:49:58.932Z,93240.00
2023-04-01T12:52:45.196Z,93245.13
2023-04-01T12:55:38.454Z,93242.34
2023-04-01T12:58:26.831Z,93212.00
2023-04-01T13:01:18.194Z,93195.06
2023-04-01T13:04:05.233Z,93212.09
2023-04-01T13:06:47.255Z,93200.72
2023-04-01T13:09:27.186Z,93195.25
2023-04-01T13:12:12.957Z,93186.97
2023-04-01T13:15:08.074Z,93166.25
2023-04-01T13:17:44.154Z,93130.91
2023-04-01T13:20:19.222Z,93158.47
2023-04-01T13:23:02.540Z,93148.66
2023-04-01T13:25:39.029Z,93152.47
2023-04-01T13:28:16.141Z,93133.34
2023-04-01T13:30:51.954Z,93157.28
2023-04-01T13:33:30.687Z,93155.06
2023-04-01T13:36:10.094Z,93125.97
2023-04-01T13:39:08.001Z,93135.44
2023-04-01T13:41:53.680Z,93129.91
2023-04-01T13:44:29.616Z,93125.81
2023-04-01T13:47:14.369Z,93129.59
2023-04-01T13:50:01.689Z,93120.34
2023-04-01T13:52:48.605Z,93122.91
2023-04-01T13:55:45.662Z,93115.44
2023-04-01T13:58:26.220Z,93123.41
2023-04-01T14:01:03.451Z,93119.31
2023-04-01T14:03:46.647Z,93112.63
2023-04-01T14:06:21.667Z,93085.53
2023-04-01T14:09:05.885Z,93089.16
2023-04-01T14:11:41.580Z,93095.72
2023-04-01T14:14:23.078Z,93106.56
2023-04-01T14:17:32.354Z,93096.28
2023-04-01T14:20:42.814Z,93089.19
2023-04-01T14:23:26.931Z,93076.00
2023-04-01T14:26:16.317Z,93062.16
2023-04-01T14:28:55.944Z,93075.88
2023-04-01T14:31:36.816Z,93063.03
2023-04-01T14:34:18.993Z,93062.94
2023-04-01T14:37:13.821Z,93059.09
2023-04-01T14:40:15.195Z,93060.56
2023-04-01T14:43:06.077Z,93053.28
2023-04-01T14:46:07.305Z,93070.22
2023-04-01T14:48:38.554Z,93071.03
2023-04-01T14:51:15.601Z,93068.38
2023-04-01T14:53:54.384Z,93067.88
2023-04-01T14:56:38.735Z,93069.38
2023-04-01T14:59:11.168Z,93052.00
2023-04-01T15:01:49.408Z,93062.03
2023-04-01T15:04:44.400Z,93065.47
2023-04-01T15:07:27.229Z,93068.38
2023-04-01T15:10:06.804Z,93079.66
2023-04-01T15:12:49.843Z,93083.94
2023-04-01T15:15:34.045Z,93082.25
2023-04-01T15:18:11.479Z,93065.34
2023-04-01T15:21:18.963Z,93082.13
2023-04-01T15:24:08.894Z,93075.78
2023-04-01T15:27:09.572Z,93090.94
2023-04-01T15:30:12.151Z,93094.56
2023-04-01T15:32:51.887Z,93085.28
2023-04-01T15:35:37.483Z,93074.25
2023-04-01T15:38:13.500Z,93085.34
2023-04-01T15:40:49.824Z,93086.63
2023-04-01T15:43:30.399Z,93085.97
2023-04-01T15:46:11.103Z,93090.09
2023-04-01T15:48:59.483Z,93122.97
2023-04-01T15:54:40.674Z,93342.34
2023-04-01T15:57:19.624Z,93338.31
2023-04-01T16:00:11.849Z,93358.09
2023-04-01T16:02:48.795Z,93346.50
2023-04-01T16:05:30.168Z,93348.34
2023-04-01T16:08:12.959Z,93344.91
2023-04-01T16:10:59.090Z,93373.13
2023-04-01T16:13:37.425Z,93342.09
2023-04-01T16:16:16.520Z,93328.78
2023-04-01T16:19:00.467Z,93329.16
2023-04-01T16:21:39.536Z,93364.13
2023-04-01T16:24:18.056Z,93349.47
2023-04-01T16:26:54.666Z,93355.47
2023-04-01T16:29:34.939Z,93371.03
2023-04-01T16:32:22.921Z,93352.50
2023-04-01T16:35:04.239Z,93357.13
2023-04-01T16:37:44.652Z,93359.66
2023-04-01T16:40:25.645Z,93378.91
2023-04-01T16:42:58.139Z,93388.25
2023-04-01T16:45:35.308Z,93395.03
2023-04-01T16:48:12.507Z,93393.59
2023-04-01T16:50:55.397Z,93391.84
2023-04-01T16:53:34.390Z,93379.28
2023-04-01T16:56:13.412Z,93378.66
2023-04-01T16:58:50.594Z,93406.00
2023-04-01T17:01:24.391Z,93388.25
2023-04-01T17:03:59.592Z,93412.31
2023-04-01T17:06:36.803Z,93386.97
2023-04-01T17:09:21.039Z,93382.41
2023-04-01T17:11:57.770Z,93418.25
2023-04-01T17:14:35.261Z,93412.91
2023-04-01T17:17:15.661Z,93408.97
2023-04-01T17:20:05.109Z,93436.81
2023-04-01T17:22:40.350Z,93390.31
2023-04-01T17:25:23.297Z,93418.44
2023-04-01T17:27:58.289Z,93423.38
2023-04-01T17:30:36.737Z,93412.88
2023-04-01T17:33:19.520Z,93423.00
2023-04-01T17:35:59.465Z,93422.31
2023-04-01T17:38:43.944Z,93412.16
2023-04-01T17:41:21.770Z,93411.97
2023-04-01T17:43:59.304Z,93409.56
2023-04-01T17:46:43.141Z,93400.53
2023-04-01T17:49:26.419Z,93415.72
2023-04-01T17:52:00.502Z,93426.50
2023-04-01T17:54:38.284Z,93436.31
2023-04-01T17:57:30.821Z,93458.22
2023-04-01T18:00:04.942Z,93455.75
2023-04-01T18:02:48.845Z,93461.97
2023-04-01T18:05:32.853Z,93479.72
2023-04-01T18:08:14.913Z,93481.69
2023-04-01T18:10:58.906Z,93478.03
2023-04-01T18:14:10.042Z,93500.84
2023-04-01T18:16:53.989Z,93497.00
2023-04-01T18:19:33.193Z,93485.97
2023-04-01T18:22:17.920Z,93509.59
2023-04-01T18:24:56.565Z,93501.56
2023-04-01T18:27:31.149Z,93516.97
2023-04-01T18:30:08.934Z,93471.63
2023-04-01T18:32:41.950Z,93501.00
2023-04-01T18:35:23.899Z,93457.88
2023-04-01T18:37:58.606Z,93491.31
2023-04-01T18:40:32.810Z,93487.13
2023-04-01T18:43:12.620Z,93499.25
2023-04-01T18:45:48.097Z,93505.66
2023-04-01T18:48:44.925Z,93504.16
2023-04-01T18:51:18.885Z,93493.09
2023-04-01T18:53:55.369Z,93503.66
2023-04-01T18:56:30.143Z,93500.28
2023-04-01T18:59:05.950Z,93526.06
2023-04-01T19:01:41.761Z,93537.38
2023-04-01T19:04:21.707Z,93525.63
2023-04-01T19:06:53.667Z,93539.72
2023-04-01T19:09:25.944Z,93536.22
2023-04-01T19:12:27.808Z,93536.81
2023-04-01T19:15:11.310Z,93551.63
2023-04-01T19:17:51.861Z,93546.28
2023-04-01T19:20:27.995Z,93545.22
2023-04-01T19:23:29.271Z,93558.75
2023-04-01T19:25:59.102Z,93554.91
2023-04-01T19:28:41.134Z,93566.63
2023-04-01T19:31:24.726Z,93562.75
2023-04-01T19:34:04.127Z,93538.34
2023-04-01T19:36:42.691Z,93549.56
2023-04-01T19:39:30.782Z,93600.88
2023-04-01T19:42:06.056Z,93577.16
2023-04-01T19:44:44.518Z,93594.81
2023-04-01T19:47:23.955Z,93561.44
2023-04-01T19:50:03.036Z,93567.06
2023-04-01T19:52:35.771Z,93553.59
2023-04-01T19:55:16.916Z,93555.41
2023-04-01T19:57:51.020Z,93596.75
2023-04-01T20:00:27.414Z,93600.94
2023-04-01T20:03:04.188Z,93590.72
2023-04-01T20:05:43.079Z,93574.81
2023-04-01T20:08:19.379Z,93578.47
2023-04-01T20:10:58.705Z,93558.78
2023-04-01T20:13:35.437Z,93586.78
2023-04-01T20:16:06.768Z,93576.69
2023-04-01T20:18:43.722Z,93580.53
2023-04-01T20:21:23.565Z,93565.72
2023-04-01T20:23:56.959Z,93593.53
2023-04-01T20:26:31.560Z,93576.69
2023-04-01T20:29:14.385Z,93607.44
2023-04-01T20:31:46.010Z,93614.03
2023-04-01T20:34:25.350Z,93609.69
2023-04-01T20:37:08.906Z,93611.13
2023-04-01T20:39:49.436Z,93605.84
2023-04-01T20:42:47.001Z,93612.16
2023-04-01T20:45:35.368Z,93613.69
2023-04-01T20:48:23.489Z,93610.59
2023-04-01T20:50:54.399Z,93606.84
2023-04-01T20:53:30.689Z,93617.97
2023-04-01T20:56:16.918Z,93613.97
2023-04-01T20:58:57.295Z,93607.38
2023-04-01T21:01:37.586Z,93616.41
2023-04-01T21:04:21.652Z,93595.06
2023-04-01T21:07:13.514Z,93619.25
2023-04-01T21:09:53.327Z,93618.59
2023-04-01T21:12:33.095Z,93600.56
2023-04-01T21:15:25.276Z,93604.06
2023-04-01T21:18:02.721Z,93636.78
2023-04-01T21:20:45.139Z,93619.78
2023-04-01T21:23:32.286Z,93651.41
2023-04-01T21:26:33.357Z,93649.91
2023-04-01T21:29:28.087Z,93612.28
2023-04-01T21:32:06.080Z,93634.09
2023-04-01T21:34:44.407Z,93617.53
2023-04-01T21:37:35.640Z,93643.72
2023-04-01T21:40:19.625Z,93636.97
2023-04-01T21:42:55.891Z,93644.75
2023-04-01T21:45:40.048Z,93617.72
2023-04-01T21:48:55.027Z,93630.09
2023-04-01T21:51:55.881Z,93636.78
2023-04-01T21:54:52.903Z,93641.78
2023-04-01T21:57:52.698Z,93642.31
2023-04-01T22:00:23.471Z,93637.06
2023-04-01T22:03:37.638Z,93632.41
2023-04-01T22:06:15.961Z,93640.72
2023-04-01T22:09:05.408Z,93639.47
2023-04-01T22:11:50.557Z,93633.41
2023-04-01T22:14:28.212Z,93626.75
2023-04-01T22:17:04.227Z,93628.69
2023-04-01T22:19:42.010Z,93622.28
2023-04-01T22:22:20.879Z,93624.50
2023-04-01T22:25:01.815Z,93622.97
2023-04-01T22:27:35.952Z,93631.34
2023-04-01T22:30:19.646Z,93619.69
2023-04-01T22:32:51.036Z,93623.25
2023-04-01T22:35:28.261Z,93587.56
2023-04-01T22:38:04.347Z,93635.03
2023-04-01T22:40:41.875Z,93629.41
2023-04-01T22:43:13.786Z,93629.41
2023-04-01T22:46:31.217Z,93639.81
2023-04-01T22:49:06.262Z,93645.44
2023-04-01T22:51:45.843Z,93644.66
2023-04-01T22:54:22.019Z,93661.78
2023-04-01T22:56:55.201Z,93654.56
2023-04-01T22:59:29.791Z,93654.44
2023-04-01T23:02:01.979Z,93635.63
2023-04-01T23:04:35.238Z,93655.16
2023-04-01T23:07:17.528Z,93660.47
2023-04-01T23:09:47.142Z,93646.50
2023-04-01T23:12:17.283Z,93651.78
2023-04-01T23:14:50.953Z,93644.38
2023-04-01T23:17:44.001Z,93645.28
2023-04-01T23:20:25.694Z,93646.63
2023-04-01T23:23:04.587Z,93660.00
2023-04-01T23:25:43.157Z,93644.75
2023-04-01T23:28:36.204Z,93664.19
2023-04-01T23:31:04.343Z,93667.59
2023-04-01T23:33:33.554Z,93673.53
2023-04-01T23:36:07.089Z,93672.38
2023-04-01T23:38:37.458Z,93671.59
2023-04-01T23:41:08.462Z,93668.03
2023-04-01T23:43:40.562Z,93662.75
2023-04-01T23:46:09.812Z,93671.84
2023-04-01T23:48:41.032Z,93658.31
2023-04-01T23:51:17.264Z,93658.13
2023-04-01T23:53:48.217Z,93641.25
2023-04-01T23:56:22.076Z,93666.94
2023-04-01T23:58:57.688Z,93667.22
